Terminal Aerodrome Forecast
Issued by NWS

Home | Current Version | Previous Version | Text Only | Print | Product List | Glossary On
Versions: 1 2 3 4 5 6 7 8 9 10 11 12 13 14
000
FTUS44 KLIX 301120
TAFMSY
TAF
KMSY 301120Z 3012/3112 01007KT P6SM SCT250
     FM301300 04007KT P6SM FEW030 SCT250
     FM301800 07011KT P6SM FEW040 SCT090=

USA.gov is the U.S. government's official web portal to all federal, state and local government web resources and services.